Huvudsida
METAR-TAF:

METAR-TAF

Flygplatser :

Mar Del Plata

Mar del Plata, Argentina

latitud: 37-56S, longitud: 057-35W, höjd: 18 m

Aktuellt väderrapport

Denna rapport gjordes för 35 minuter sedan, klockan 23:00 UTC
Vind 10 kt från syd/sydväst, varierande mellan syd och sydväst
Temperatur 17°C
Fuktighet 77%
Tryck 1016 hPa
Sikt 10 km eller mer
Inga moln under 1 500 m eller inga cumulonimbus

METAR: SAZM 182300Z 20010KT 170V230 CAVOK 17/13 Q1016

Tid: 20:35 (23:35 UTC)

Väderprognos

Denna rapport gjordes för 35 minuter sedan, klockan 23:00 UTC
Prognos gäller från 19 kl. 00 UTC till 19 kl. 24 UTC
Vind 10 kt från syd/sydväst
Sikt 10 km eller mer
Inga moln under 1 500 m eller inga cumulonimbus
Sannolikhet 40%
från 19 kl. 05 UTC till 19 kl. 11 UTC
Sikt: 5000 m
fuktdis
Blir
från 19 kl. 15 UTC till 19 kl. 18 UTC
Vind 15 kt från ost/nordost

TAF: SAZM 182300Z 1900/1924 20010KT CAVOK TX24/1919Z TN10/1909Z PROB40 1905/1911 5000 BR BECMG 1915/1918 06015KT

Aktuella väderrapporter och prognoser från 4000 flygplatser (METAR- och TAF-rapporter).

De tillgängliga stationerna syns som gula och röda prickar på kartan.

För musen över prickarna för att se namnen på stationerna.

Klicka sedan för att få väderrapporter och prognoser.

För att ändra kartan: Klicka på de gröna knapparna med ett svart kors på för att zooma in; den gröna knappen med ett streck på för att zooma ut; eller på de gröna pilarna för angränsande kartor.


METAR-TAF: